createdAt,value
2023-02-11T00:01:08.180Z,22.30
2023-02-11T00:03:36.573Z,16.00
2023-02-11T00:06:05.793Z,15.30
2023-02-11T00:08:33.904Z,14.10
2023-02-11T00:11:02.269Z,12.50
2023-02-11T00:13:30.822Z,12.00
2023-02-11T00:16:06.305Z,10.90
2023-02-11T00:18:34.675Z,11.00
2023-02-11T00:21:08.978Z,12.00
2023-02-11T00:23:37.193Z,11.00
2023-02-11T00:26:06.296Z,12.60
2023-02-11T00:28:35.609Z,13.70
2023-02-11T00:33:26.797Z,16.60
2023-02-11T00:35:55.229Z,25.10
2023-02-11T00:38:23.724Z,26.90
2023-02-11T00:40:51.921Z,27.50
2023-02-11T00:43:20.302Z,31.30
2023-02-11T00:45:49.419Z,32.70
2023-02-11T00:48:18.216Z,29.60
2023-02-11T00:50:46.482Z,21.60
2023-02-11T00:53:14.782Z,17.80
2023-02-11T00:55:43.155Z,15.20
2023-02-11T00:58:11.636Z,13.60
2023-02-11T01:00:40.293Z,15.10
2023-02-11T01:03:08.576Z,15.40
2023-02-11T01:05:36.959Z,15.80
2023-02-11T01:08:05.397Z,15.00
2023-02-11T01:10:34.176Z,16.10
2023-02-11T01:13:02.873Z,16.20
2023-02-11T01:15:31.691Z,16.00
2023-02-11T01:18:00.700Z,16.00
2023-02-11T01:20:29.507Z,15.50
2023-02-11T01:22:58.922Z,16.70
2023-02-11T01:25:27.553Z,17.60
2023-02-11T01:27:55.832Z,18.80
2023-02-11T01:30:24.208Z,19.90
2023-02-11T01:32:52.670Z,20.10
2023-02-11T01:35:21.170Z,21.20
2023-02-11T01:37:49.455Z,25.80
2023-02-11T01:40:17.723Z,34.60
2023-02-11T01:42:48.872Z,42.20
2023-02-11T01:45:38.327Z,38.50
2023-02-11T01:48:06.773Z,49.50
2023-02-11T01:50:35.400Z,46.00
2023-02-11T01:53:24.808Z,43.30
2023-02-11T01:56:12.641Z,34.30
2023-02-11T01:58:42.002Z,33.70
2023-02-11T02:01:11.115Z,34.10
2023-02-11T02:03:40.106Z,36.00
2023-02-11T02:06:11.295Z,46.00
2023-02-11T02:08:41.204Z,47.20
2023-02-11T02:11:12.895Z,41.00
2023-02-11T02:13:41.254Z,30.50
2023-02-11T02:16:13.370Z,22.00
2023-02-11T02:18:51.355Z,20.20
2023-02-11T02:21:29.558Z,18.10
2023-02-11T02:24:14.212Z,16.40
2023-02-11T02:27:08.672Z,17.50
2023-02-11T02:29:57.625Z,18.00
2023-02-11T02:32:45.045Z,16.90
2023-02-11T02:35:20.893Z,16.20
2023-02-11T02:38:04.368Z,15.50
2023-02-11T02:40:35.646Z,14.90
2023-02-11T02:43:04.116Z,16.30
2023-02-11T02:45:33.054Z,15.80
2023-02-11T02:48:01.420Z,18.20
2023-02-11T02:50:31.650Z,17.60
2023-02-11T02:52:59.893Z,19.50
2023-02-11T02:55:31.467Z,19.70
2023-02-11T02:58:02.482Z,20.80
2023-02-11T03:00:35.240Z,21.80
2023-02-11T03:03:12.623Z,20.70
2023-02-11T03:05:48.657Z,18.60
2023-02-11T03:08:37.325Z,18.30
2023-02-11T03:11:05.596Z,18.10
2023-02-11T03:13:34.824Z,16.90
2023-02-11T03:16:17.845Z,16.90
2023-02-11T03:19:06.567Z,15.70
2023-02-11T03:21:36.911Z,15.90
2023-02-11T03:24:10.008Z,15.90
2023-02-11T03:26:39.533Z,11.40
2023-02-11T03:29:10.392Z,14.10
2023-02-11T03:31:54.492Z,15.30
2023-02-11T03:34:26.756Z,14.30
2023-02-11T03:36:57.453Z,16.70
2023-02-11T03:39:28.059Z,18.20
2023-02-11T03:41:56.237Z,24.00
2023-02-11T03:44:24.975Z,21.90
2023-02-11T03:46:52.999Z,37.30
2023-02-11T03:49:21.639Z,49.90
2023-02-11T03:51:52.848Z,45.40
2023-02-11T03:54:21.814Z,32.30
2023-02-11T03:59:23.177Z,22.60
2023-02-11T04:01:51.610Z,19.90
2023-02-11T04:04:19.759Z,23.40
2023-02-11T04:06:47.819Z,39.20
2023-02-11T04:09:16.230Z,43.80
2023-02-11T04:11:44.281Z,55.80
2023-02-11T04:14:12.370Z,60.10
2023-02-11T04:16:40.507Z,48.90
2023-02-11T04:19:10.576Z,43.20
2023-02-11T04:21:39.128Z,41.50
2023-02-11T04:24:07.178Z,30.10
2023-02-11T04:26:35.319Z,21.00
2023-02-11T04:29:03.382Z,20.70
2023-02-11T04:31:31.606Z,17.30
2023-02-11T04:33:59.698Z,19.50
2023-02-11T04:36:27.894Z,18.40
2023-02-11T04:38:55.967Z,19.10
2023-02-11T04:41:28.112Z,23.40
2023-02-11T04:43:56.219Z,29.50
2023-02-11T04:46:24.370Z,31.70
2023-02-11T04:48:54.797Z,31.30
2023-02-11T04:51:23.331Z,31.60
2023-02-11T04:53:52.297Z,28.20
2023-02-11T04:56:20.550Z,25.00
2023-02-11T04:58:48.978Z,26.50
2023-02-11T05:01:17.538Z,27.70
2023-02-11T05:03:46.098Z,36.60
2023-02-11T05:06:14.188Z,36.70
2023-02-11T05:08:42.317Z,36.60
2023-02-11T05:11:20.225Z,36.40
2023-02-11T05:13:48.450Z,36.30
2023-02-11T05:16:16.760Z,36.00
2023-02-11T05:18:45.381Z,33.30
2023-02-11T05:21:17.520Z,31.80
2023-02-11T05:23:45.806Z,33.20
2023-02-11T05:26:13.855Z,35.60
2023-02-11T05:28:42.245Z,33.10
2023-02-11T05:31:10.857Z,30.60
2023-02-11T05:33:39.160Z,29.80
2023-02-11T05:36:08.519Z,29.10
2023-02-11T05:38:37.104Z,29.80
2023-02-11T05:41:05.369Z,27.50
2023-02-11T05:43:35.346Z,27.60
2023-02-11T05:46:03.812Z,28.50
2023-02-11T05:48:32.676Z,27.10
2023-02-11T05:51:01.008Z,24.00
2023-02-11T05:53:29.194Z,21.80
2023-02-11T05:55:57.626Z,22.50
2023-02-11T05:58:25.848Z,23.10
2023-02-11T06:00:53.972Z,24.90
2023-02-11T06:03:22.478Z,24.90
2023-02-11T06:05:51.005Z,23.80
2023-02-11T06:08:19.266Z,25.70
2023-02-11T06:10:47.523Z,26.10
2023-02-11T06:13:15.644Z,26.20
2023-02-11T06:15:44.777Z,26.70
2023-02-11T06:18:12.997Z,26.60
2023-02-11T06:20:41.694Z,26.60
2023-02-11T06:23:10.537Z,28.10
2023-02-11T06:25:39.010Z,28.70
2023-02-11T06:28:08.739Z,30.70
2023-02-11T06:30:37.667Z,30.80
2023-02-11T06:33:05.985Z,28.90
2023-02-11T06:35:35.976Z,27.30
2023-02-11T06:38:04.186Z,28.50
2023-02-11T06:40:32.313Z,27.20
2023-02-11T06:43:01.004Z,28.40
2023-02-11T06:45:29.746Z,29.70
2023-02-11T06:47:57.920Z,36.40
2023-02-11T06:50:26.037Z,43.30
2023-02-11T06:52:54.346Z,35.70
2023-02-11T06:55:22.924Z,35.20
2023-02-11T06:57:51.492Z,35.90
2023-02-11T07:00:19.725Z,35.60
2023-02-11T07:02:49.531Z,35.30
2023-02-11T07:05:17.742Z,32.70
2023-02-11T07:07:45.884Z,32.80
2023-02-11T07:10:13.976Z,32.00
2023-02-11T07:12:44.495Z,33.20
2023-02-11T07:15:12.628Z,31.70
2023-02-11T07:17:40.956Z,31.20
2023-02-11T07:20:12.600Z,29.10
2023-02-11T07:22:40.804Z,27.40
2023-02-11T07:25:08.933Z,28.00
2023-02-11T07:27:37.703Z,28.20
2023-02-11T07:30:07.406Z,28.50
2023-02-11T07:32:35.764Z,29.40
2023-02-11T07:35:04.107Z,29.50
2023-02-11T07:37:34.047Z,31.50
2023-02-11T07:40:02.455Z,28.30
2023-02-11T07:42:30.663Z,29.60
2023-02-11T07:44:58.847Z,28.30
2023-02-11T07:47:27.830Z,27.30
2023-02-11T07:49:56.892Z,27.10
2023-02-11T07:52:25.047Z,29.40
2023-02-11T07:54:53.519Z,29.30
2023-02-11T07:57:21.788Z,30.80
2023-02-11T07:59:51.631Z,27.90
2023-02-11T08:02:20.079Z,29.80
2023-02-11T08:04:49.333Z,33.10
2023-02-11T08:07:17.693Z,27.50
2023-02-11T08:09:47.571Z,29.20
2023-02-11T08:12:19.468Z,32.50
2023-02-11T08:14:47.951Z,31.20
2023-02-11T08:17:16.534Z,34.10
2023-02-11T08:19:44.618Z,34.80
2023-02-11T08:22:12.975Z,32.70
2023-02-11T08:24:41.286Z,30.70
2023-02-11T08:27:09.548Z,32.10
2023-02-11T08:29:38.053Z,30.10
2023-02-11T08:32:06.201Z,30.40
2023-02-11T08:34:35.317Z,30.60
2023-02-11T08:37:03.456Z,31.00
2023-02-11T08:39:31.614Z,26.30
2023-02-11T08:42:00.216Z,27.10
2023-02-11T08:44:28.389Z,27.90
2023-02-11T08:46:56.609Z,25.80
2023-02-11T08:49:24.756Z,25.60
2023-02-11T08:51:54.300Z,25.10
2023-02-11T08:54:23.252Z,26.00
2023-02-11T08:56:51.508Z,25.50
2023-02-11T08:59:19.774Z,24.80
2023-02-11T09:01:48.916Z,24.50
2023-02-11T09:04:17.228Z,22.20
2023-02-11T09:06:45.620Z,21.00
2023-02-11T09:09:14.567Z,21.60
2023-02-11T09:11:43.978Z,21.20
2023-02-11T09:14:17.305Z,21.70
2023-02-11T09:16:46.455Z,22.20
2023-02-11T09:19:17.837Z,22.60
2023-02-11T09:21:46.385Z,21.10
2023-02-11T09:24:14.888Z,21.00
2023-02-11T09:26:43.560Z,21.30
2023-02-11T09:29:11.874Z,21.40
2023-02-11T09:31:40.115Z,21.90
2023-02-11T09:34:08.995Z,20.70
2023-02-11T09:36:38.722Z,21.10
2023-02-11T09:39:07.853Z,24.90
2023-02-11T09:41:47.384Z,24.90
2023-02-11T09:44:20.459Z,21.00
2023-02-11T09:46:54.680Z,21.90
2023-02-11T09:49:46.055Z,20.10
2023-02-11T09:52:17.191Z,22.20
2023-02-11T09:54:55.107Z,21.40
2023-02-11T09:57:28.976Z,21.00
2023-02-11T09:59:58.086Z,20.80
2023-02-11T10:02:26.487Z,22.90
2023-02-11T10:05:10.552Z,21.20
2023-02-11T10:07:47.958Z,22.50
2023-02-11T10:10:34.320Z,21.60
2023-02-11T10:13:15.283Z,21.30
2023-02-11T10:15:49.873Z,22.10
2023-02-11T10:18:24.506Z,21.70
2023-02-11T10:23:24.872Z,23.80
2023-02-11T10:25:54.816Z,20.40
2023-02-11T10:28:25.173Z,20.20
2023-02-11T10:31:10.404Z,19.90
2023-02-11T10:33:57.103Z,20.70
2023-02-11T10:36:29.316Z,21.80
2023-02-11T10:39:00.696Z,19.50
2023-02-11T10:41:33.244Z,20.70
2023-02-11T10:44:01.724Z,20.70
2023-02-11T10:46:31.548Z,21.10
2023-02-11T10:48:59.794Z,19.60
2023-02-11T10:51:34.559Z,19.20
2023-02-11T10:54:08.340Z,20.40
2023-02-11T10:56:37.496Z,22.30
2023-02-11T10:59:07.845Z,21.10
2023-02-11T11:01:46.425Z,21.10
2023-02-11T11:04:26.736Z,20.50
2023-02-11T11:06:57.483Z,24.40
2023-02-11T11:09:30.655Z,21.90
2023-02-11T11:11:59.160Z,16.40
2023-02-11T11:14:29.227Z,22.20
2023-02-11T11:16:57.554Z,22.80
2023-02-11T11:19:25.762Z,22.10
2023-02-11T11:21:54.569Z,23.40
2023-02-11T11:24:29.954Z,22.40
2023-02-11T11:27:01.795Z,22.70
2023-02-11T11:29:49.945Z,23.40
2023-02-11T11:32:22.569Z,23.10
2023-02-11T11:34:55.907Z,22.30
2023-02-11T11:37:28.420Z,23.40
2023-02-11T11:40:23.038Z,20.20
2023-02-11T11:43:12.076Z,20.80
2023-02-11T11:45:43.632Z,21.40
2023-02-11T11:48:19.811Z,21.80
2023-02-11T11:51:09.354Z,21.70
2023-02-11T11:53:38.937Z,23.10
2023-02-11T11:56:09.717Z,22.70
2023-02-11T11:58:38.421Z,22.30
2023-02-11T12:01:06.680Z,21.20
2023-02-11T12:03:48.833Z,23.10
2023-02-11T12:06:51.880Z,23.60
2023-02-11T12:09:26.655Z,23.10
2023-02-11T12:12:14.088Z,29.30
2023-02-11T12:15:02.175Z,24.30
2023-02-11T12:17:33.907Z,26.90
2023-02-11T12:20:21.182Z,27.70
2023-02-11T12:23:07.659Z,27.30
2023-02-11T12:25:36.162Z,24.60
2023-02-11T12:28:10.566Z,24.30
2023-02-11T12:30:53.643Z,24.10
2023-02-11T12:33:30.986Z,23.30
2023-02-11T12:36:00.491Z,22.40
2023-02-11T12:38:36.807Z,15.90
2023-02-11T12:41:10.482Z,23.30
2023-02-11T12:43:42.844Z,22.70
2023-02-11T12:46:29.883Z,21.00
2023-02-11T12:49:01.679Z,21.00
2023-02-11T12:52:53.436Z,21.70
2023-02-11T12:55:25.681Z,22.80
2023-02-11T12:57:54.679Z,20.50
2023-02-11T13:00:24.913Z,19.60
2023-02-11T13:02:59.455Z,21.40
2023-02-11T13:05:41.026Z,21.80
2023-02-11T13:08:11.572Z,23.20
2023-02-11T13:10:40.789Z,23.00
2023-02-11T13:13:19.065Z,23.20
2023-02-11T13:15:52.279Z,23.60
2023-02-11T13:18:27.216Z,23.10
2023-02-11T13:21:00.173Z,24.50
2023-02-11T13:23:31.922Z,25.70
2023-02-11T13:26:05.790Z,27.10
2023-02-11T13:28:41.674Z,31.40
2023-02-11T13:31:10.254Z,28.70
2023-02-11T13:33:40.217Z,21.70
2023-02-11T13:36:08.449Z,23.50
2023-02-11T13:38:36.996Z,23.60
2023-02-11T13:41:24.985Z,24.00
2023-02-11T13:44:03.410Z,24.70
2023-02-11T13:46:53.223Z,29.50
2023-02-11T13:49:26.450Z,33.00
2023-02-11T13:51:57.997Z,33.20
2023-02-11T13:54:38.612Z,33.60
2023-02-11T13:57:22.321Z,30.50
2023-02-11T13:59:51.446Z,26.60
2023-02-11T14:02:40.367Z,25.80
2023-02-11T14:05:27.445Z,26.90
2023-02-11T14:08:30.559Z,25.80
2023-02-11T14:11:12.512Z,25.70
2023-02-11T14:13:48.291Z,26.20
2023-02-11T14:16:28.183Z,26.20
2023-02-11T14:19:03.891Z,26.80
2023-02-11T14:21:33.612Z,26.30
2023-02-11T14:24:19.891Z,26.80
2023-02-11T14:26:56.633Z,26.90
2023-02-11T14:29:30.750Z,24.50
2023-02-11T14:32:10.871Z,25.30
2023-02-11T14:34:59.701Z,25.70
2023-02-11T14:37:29.272Z,24.10
2023-02-11T14:40:09.924Z,25.50
2023-02-11T14:42:38.310Z,24.70
2023-02-11T14:45:08.175Z,25.10
2023-02-11T14:47:40.878Z,25.80
2023-02-11T14:50:14.691Z,26.90
2023-02-11T14:52:43.645Z,25.80
2023-02-11T14:55:29.249Z,30.00
2023-02-11T14:58:23.892Z,31.30
2023-02-11T15:00:55.084Z,48.30
2023-02-11T15:03:43.163Z,49.80
2023-02-11T15:06:24.865Z,41.70
2023-02-11T15:08:58.380Z,36.60
2023-02-11T15:11:34.123Z,38.10
2023-02-11T15:14:10.021Z,40.50
2023-02-11T15:16:42.689Z,41.50
2023-02-11T15:19:20.073Z,35.30
2023-02-11T15:21:50.724Z,32.70
2023-02-11T15:24:26.386Z,33.40
2023-02-11T15:26:57.868Z,31.20
2023-02-11T15:29:36.479Z,31.60
2023-02-11T15:32:06.092Z,30.40
2023-02-11T15:34:35.382Z,28.10
2023-02-11T15:37:04.235Z,28.60
2023-02-11T15:39:36.960Z,27.30
2023-02-11T15:42:18.367Z,26.10
2023-02-11T15:44:52.274Z,26.60
2023-02-11T15:47:22.989Z,24.90
2023-02-11T15:49:51.469Z,26.70
2023-02-11T15:52:24.354Z,26.70
2023-02-11T15:54:53.054Z,27.90
2023-02-11T15:57:21.845Z,27.80
2023-02-11T15:59:50.911Z,31.50
2023-02-11T16:02:19.168Z,30.00
2023-02-11T16:04:58.088Z,36.60
2023-02-11T16:07:46.271Z,33.20
2023-02-11T16:10:31.072Z,30.50
2023-02-11T16:13:07.108Z,31.40
2023-02-11T16:15:49.987Z,35.80
2023-02-11T16:18:52.037Z,46.80
2023-02-11T16:21:33.468Z,42.40
2023-02-11T16:24:01.746Z,33.90
2023-02-11T16:26:37.183Z,29.30
2023-02-11T16:29:13.468Z,29.00
2023-02-11T16:31:43.759Z,27.70
2023-02-11T16:34:22.375Z,28.10
2023-02-11T16:36:50.921Z,27.40
2023-02-11T16:39:21.770Z,30.10
2023-02-11T16:41:52.602Z,30.30
2023-02-11T16:44:21.742Z,30.60
2023-02-11T16:46:52.027Z,30.20
2023-02-11T16:49:24.476Z,32.00
2023-02-11T16:51:53.418Z,30.40
2023-02-11T16:54:23.696Z,31.80
2023-02-11T16:56:52.498Z,32.00
2023-02-11T16:59:20.625Z,37.60
2023-02-11T17:01:48.930Z,39.30
2023-02-11T17:04:18.839Z,41.20
2023-02-11T17:06:50.718Z,39.30
2023-02-11T17:09:20.108Z,43.20
2023-02-11T17:11:50.390Z,50.20
2023-02-11T17:14:19.330Z,54.30
2023-02-11T17:16:47.927Z,50.20
2023-02-11T17:19:20.725Z,43.90
2023-02-11T17:21:49.651Z,45.90
2023-02-11T17:24:18.643Z,34.30
2023-02-11T17:26:47.085Z,36.40
2023-02-11T17:29:16.375Z,34.20
2023-02-11T17:31:45.162Z,33.10
2023-02-11T17:34:13.364Z,32.40
2023-02-11T17:36:42.493Z,32.50
2023-02-11T17:39:12.261Z,30.40
2023-02-11T17:41:40.868Z,31.20
2023-02-11T17:44:10.970Z,31.20
2023-02-11T17:46:39.420Z,29.50
2023-02-11T17:49:11.743Z,31.00
2023-02-11T17:51:43.666Z,30.40
2023-02-11T17:54:13.153Z,29.90
2023-02-11T17:56:41.457Z,31.50
2023-02-11T17:59:10.291Z,29.50
2023-02-11T18:01:39.699Z,28.40
2023-02-11T18:04:12.597Z,30.60
2023-02-11T18:06:41.003Z,29.70
2023-02-11T18:09:09.184Z,30.60
2023-02-11T18:11:37.842Z,31.60
2023-02-11T18:14:07.912Z,28.50
2023-02-11T18:16:43.281Z,27.60
2023-02-11T18:19:12.270Z,29.30
2023-02-11T18:21:42.032Z,26.60
2023-02-11T18:24:11.883Z,31.50
2023-02-11T18:26:42.883Z,26.80
2023-02-11T18:29:11.192Z,27.30
2023-02-11T18:31:39.667Z,25.10
2023-02-11T18:34:08.638Z,26.00
2023-02-11T18:36:36.884Z,27.60
2023-02-11T18:39:06.074Z,27.10
2023-02-11T18:41:34.731Z,25.70
2023-02-11T18:44:05.249Z,24.90
2023-02-11T18:46:34.315Z,25.30
2023-02-11T18:49:02.790Z,24.80
2023-02-11T18:51:32.496Z,25.10
2023-02-11T18:54:02.614Z,26.20
2023-02-11T18:56:30.872Z,23.40
2023-02-11T18:59:01.533Z,25.10
2023-02-11T19:01:31.532Z,23.90
2023-02-11T19:04:03.006Z,24.30
2023-02-11T19:06:33.824Z,23.30
2023-02-11T19:09:10.412Z,24.20
2023-02-11T19:11:49.116Z,25.80
2023-02-11T19:14:19.160Z,24.10
2023-02-11T19:16:47.752Z,23.10
2023-02-11T19:19:17.644Z,24.40
2023-02-11T19:21:47.946Z,24.20
2023-02-11T19:24:19.239Z,25.20
2023-02-11T19:26:50.240Z,23.70
2023-02-11T19:29:19.760Z,23.40
2023-02-11T19:31:48.871Z,24.70
2023-02-11T19:34:20.409Z,27.50
2023-02-11T19:36:56.815Z,28.50
2023-02-11T19:39:27.210Z,32.10
2023-02-11T19:41:56.517Z,30.20
2023-02-11T19:44:25.794Z,31.20
2023-02-11T19:46:55.145Z,30.50
2023-02-11T19:49:26.719Z,30.80
2023-02-11T19:51:57.927Z,29.80
2023-02-11T19:54:27.255Z,28.00
2023-02-11T19:56:56.393Z,27.10
2023-02-11T19:59:25.580Z,31.20
2023-02-11T20:01:55.243Z,30.40
2023-02-11T20:04:27.252Z,28.00
2023-02-11T20:06:56.529Z,29.70
2023-02-11T20:09:29.056Z,25.40
2023-02-11T20:11:58.594Z,40.60
2023-02-11T20:14:28.221Z,46.50
2023-02-11T20:16:57.448Z,61.90
2023-02-11T20:19:27.341Z,78.70
2023-02-11T20:21:56.306Z,57.90
2023-02-11T20:24:25.736Z,40.60
2023-02-11T20:26:56.281Z,46.90
2023-02-11T20:29:26.043Z,53.60
2023-02-11T20:31:56.372Z,48.80
2023-02-11T20:34:25.665Z,52.50
2023-02-11T20:36:55.293Z,41.10
2023-02-11T20:39:25.198Z,33.10
2023-02-11T20:41:54.860Z,25.30
2023-02-11T20:44:23.642Z,23.40
2023-02-11T20:46:54.318Z,23.20
2023-02-11T20:49:23.813Z,20.60
2023-02-11T20:51:54.311Z,19.00
2023-02-11T20:54:23.475Z,17.70
2023-02-11T20:56:56.332Z,18.50
2023-02-11T20:59:25.657Z,18.20
2023-02-11T21:01:55.744Z,20.30
2023-02-11T21:04:25.139Z,19.50
2023-02-11T21:06:54.818Z,19.30
2023-02-11T21:09:23.963Z,19.70
2023-02-11T21:11:52.792Z,17.30
2023-02-11T21:14:22.516Z,17.00
2023-02-11T21:16:50.901Z,17.10
2023-02-11T21:19:19.255Z,18.00
2023-02-11T21:21:47.530Z,18.10
2023-02-11T21:24:16.558Z,18.30
2023-02-11T21:26:48.943Z,15.80
2023-02-11T21:29:17.426Z,18.40
2023-02-11T21:31:46.419Z,15.40
2023-02-11T21:34:16.537Z,17.00
2023-02-11T21:36:45.378Z,17.00
2023-02-11T21:39:16.354Z,15.50
2023-02-11T21:41:44.687Z,15.90
2023-02-11T21:44:12.984Z,17.30
2023-02-11T21:46:42.777Z,16.80
2023-02-11T21:49:11.751Z,17.00
2023-02-11T21:51:40.049Z,16.90
2023-02-11T21:54:08.754Z,14.30
2023-02-11T21:56:37.532Z,16.20
2023-02-11T21:59:05.769Z,14.90
2023-02-11T22:01:36.572Z,13.80
2023-02-11T22:04:04.752Z,15.90
2023-02-11T22:06:34.352Z,15.50
2023-02-11T22:09:03.783Z,14.80
2023-02-11T22:11:33.021Z,15.70
2023-02-11T22:14:01.833Z,15.00
2023-02-11T22:16:31.081Z,16.80
2023-02-11T22:18:59.753Z,17.20
2023-02-11T22:21:28.233Z,16.10
2023-02-11T22:23:56.608Z,18.20
2023-02-11T22:26:26.232Z,15.70
2023-02-11T22:28:55.108Z,11.50
2023-02-11T22:31:27.312Z,17.10
2023-02-11T22:33:55.815Z,16.20
2023-02-11T22:36:33.647Z,15.90
2023-02-11T22:39:06.554Z,16.90
2023-02-11T22:41:34.754Z,16.50
2023-02-11T22:44:03.223Z,17.20
2023-02-11T22:46:31.590Z,17.80
2023-02-11T22:49:00.328Z,16.50
2023-02-11T22:51:29.120Z,16.80
2023-02-11T22:53:58.768Z,16.90
2023-02-11T22:56:28.018Z,16.40
2023-02-11T22:59:00.567Z,18.70
2023-02-11T23:01:29.808Z,16.60
2023-02-11T23:04:02.195Z,16.90
2023-02-11T23:06:30.629Z,15.70
2023-02-11T23:08:58.993Z,16.40
2023-02-11T23:11:28.362Z,16.70
2023-02-11T23:13:59.266Z,16.50
2023-02-11T23:16:31.535Z,17.10
2023-02-11T23:19:00.327Z,16.60
2023-02-11T23:21:29.509Z,17.30
2023-02-11T23:24:06.126Z,16.70
2023-02-11T23:26:34.806Z,17.00
2023-02-11T23:29:03.319Z,16.50
2023-02-11T23:31:35.000Z,16.60
2023-02-11T23:34:03.674Z,17.10
2023-02-11T23:36:31.789Z,16.20
2023-02-11T23:39:04.456Z,16.10
2023-02-11T23:41:32.989Z,17.30
2023-02-11T23:44:01.262Z,16.70
2023-02-11T23:46:30.286Z,16.70
2023-02-11T23:48:58.461Z,16.80
2023-02-11T23:51:26.641Z,17.40
2023-02-11T23:53:56.343Z,16.20
2023-02-11T23:56:25.695Z,16.00
2023-02-11T23:58:54.607Z,14.70
